Archival Weather

Fukuoka

Fukuoka, Japan (RJFF)

Report from: Tuesday, August 16, 2022 9:00 PM JST
Current time: Sunday, November 27, 2022 6:41 PM JST

Current weather
Weather history
Weather forecast

Present weatherHeavy thunderstorm with rain, mist, thunderstorm with rain, mist
Temperature26.0°C (78.8°F)
Dew point25.0°C (77.0°F)
Winds 10 kts (5.1 m/s, 11.5 mph) South-Southeast (160°)
Visibility3.1 mi. (5 km)
Clouds Few clouds 800 ft. (244 m)
Scattered clouds with cumulonimbus 3,000 ft. (914 m)
Ceiling: Broken clouds 4,000 ft. (1,219 m)
Altimeter29.77 in.Hg (1008 mB)
Relative humidity94 %
Density altitude1,871 ft. (570 m)
Flight conditions Marginal Visual Meteorological Conditions
Raw dataRJFF 161200Z 16010KT 5000 +TSRA BR FEW008 SCT030CB BKN040 26/25 Q1008 TEMPO TL1300 4000 TSRA BR BECMG FM1300 TL1330 -SHRA
An error has occurred. This application may no longer respond until reloaded. Reload 🗙